Portada
METAR-TAF:

METAR-TAF

Aeroports :

Al-Kuwait, Kuwait

latitud: 29-13N, longitud: 047-59E, altitud: 55 m

Observació

L'informe es va fer fa 59 minuts, a les 02:00 UTC
Vent 10 kt del Est/Sud-Est
Temperatura 18°C
Humitat 88%
Pressió 1010 hPa
Visibilitat: 8000 m
Núvols disperses a una alçada de 3000 ft, Cumulonimbus.
Cel ennuvolat a una alçada de 8000 ft

METAR: OKBK 130200Z 12010KT 8000 SCT030CB BKN080 18/16 Q1010 NOSIG

Hora: 05:59 (02:59 UTC)

Pronòstic

L'informe es va fer fa 4 hores i 14 minuts, a les 22:45 UTC
Pronòstic vàlid del 13 a les 00 UTC al 14 a les 06 UTC
Vent 12 kt del Sud/Sud-Est amb ràfegues de 24 kt
Visibilitat: 7000 m
Núvols disperses a una alçada de 4000 ft
Cel ennuvolat a una alçada de 8000 ft
Temporalment
l' 13 a les 00 UTC al 13 a les 09 UTC
Visibilitat: 3000 m
Escasses núvols a una alçada de 2500 ft, Cumulonimbus.

TAF: OKBK 122245Z 1300/1406 16012G24KT 7000 SCT040 BKN080 TEMPO 1300/1309 3000 TSRA/BLDU FEW025CB

Observacions i pronòstics meteorològics de més de 4000 aeroports (METAR i TAF).

Les estacions disponibles són els punts grocs i vermells al mapa.

Posi el ratolí al punt desitjat per veure el nom de l'estació.

Feu clic per veure les observacions i els pronòstics meteorològics.

Per canviar el mapa: feu clic els botons verds amb una creu de color negre per apropar; al botó verd amb un guió per allunyar la imatge; o en les fletxes verdes per a mapes adjacents.


METAR-TAF: